Time;durP1;ratioP1;P1;durP2;ratioP2;P2;SDS_P1;SDS_P2;PMS_P1;PMS_P2;Temp;Humidity;BMP_temperature;BMP_pressure;BME280_temperature;BME280_humidity;BME280_pressure;Samples;Min_cycle;Max_cycle;Signal;HPM_P1;HPM_P2
2022/12/01 00:01:45;;;;;;;;;;;16.30;70.40;;;;;;10355956;28;19976;-67
2022/12/01 00:06:47;;;;;;;;;;;16.30;70.50;;;;;;10356052;28;19934;-67
2022/12/01 00:11:49;;;;;;;;;;;16.20;70.40;;;;;;10355932;28;19977;-67
2022/12/01 00:16:50;;;;;;;;;;;16.30;70.50;;;;;;10354763;28;20017;-67
2022/12/01 00:21:52;;;;;;;;;;;16.20;70.50;;;;;;10355508;28;20864;-67
2022/12/01 00:26:54;;;;;;;;;;;16.20;70.50;;;;;;10355665;28;19934;-67
2022/12/01 00:31:56;;;;;;;;;;;16.20;70.50;;;;;;10354460;28;19934;-68
2022/12/01 00:36:57;;;;;;;;;;;16.20;70.50;;;;;;10354156;28;20017;-67
2022/12/01 00:41:59;;;;;;;;;;;16.20;70.70;;;;;;10354471;28;20879;-67
2022/12/01 00:47:01;;;;;;;;;;;16.20;70.60;;;;;;10355416;28;19934;-67
2022/12/01 00:52:03;;;;;;;;;;;16.20;70.60;;;;;;10353897;28;19981;-67
2022/12/01 00:57:04;;;;;;;;;;;16.20;70.50;;;;;;10353823;28;19964;-68
2022/12/01 01:02:06;;;;;;;;;;;16.30;70.60;;;;;;10354852;28;20381;-68
2022/12/01 01:07:08;;;;;;;;;;;16.20;70.50;;;;;;10353658;28;19957;-68
2022/12/01 01:12:10;;;;;;;;;;;16.20;70.60;;;;;;10346691;28;20048;-66
2022/12/01 01:17:12;;;;;;;;;;;16.20;70.70;;;;;;10347451;28;19981;-67
2022/12/01 01:22:14;;;;;;;;;;;16.20;70.70;;;;;;10346226;28;20387;-68
2022/12/01 01:27:16;;;;;;;;;;;16.20;70.70;;;;;;10346337;28;20028;-66
2022/12/01 01:32:17;;;;;;;;;;;16.20;70.70;;;;;;10346339;28;19977;-68
2022/12/01 01:37:19;;;;;;;;;;;16.20;70.70;;;;;;10347135;28;19940;-67
2022/12/01 01:42:21;;;;;;;;;;;16.20;70.90;;;;;;10346781;28;20033;-67
2022/12/01 01:47:29;;;;;;;;;;;16.20;70.80;;;;;;10347375;28;20460;-69
2022/12/01 01:52:32;;;;;;;;;;;16.20;70.70;;;;;;10346002;28;19978;-67
2022/12/01 01:57:34;;;;;;;;;;;16.20;70.50;;;;;;10346819;28;20020;-68
2022/12/01 02:02:42;;;;;;;;;;;16.10;70.30;;;;;;10775351;23;19972;-61
2022/12/01 02:07:45;;;;;;;;;;;16.10;70.30;;;;;;10345802;28;19956;-60
2022/12/01 02:12:51;;;;;;;;;;;16.10;70.30;;;;;;10345104;28;19972;-59
2022/12/01 02:18:01;;;;;;;;;;;16.10;70.30;;;;;;10346055;28;19965;-60
2022/12/01 02:23:21;;;;;;;;;;;16.10;70.30;;;;;;10344460;28;20021;-60
2022/12/01 02:28:33;;;;;;;;;;;16.00;70.20;;;;;;10346174;28;20483;-59
2022/12/01 02:33:38;;;;;;;;;;;16.00;70.20;;;;;;10345398;28;20021;-60
2022/12/01 02:38:48;;;;;;;;;;;16.00;70.30;;;;;;10343889;28;19981;-60
2022/12/01 02:44:09;;;;;;;;;;;16.00;70.40;;;;;;10327008;28;20037;-59
2022/12/01 02:49:14;;;;;;;;;;;16.00;70.40;;;;;;10344892;28;20033;-60
2022/12/01 02:54:15;;;;;;;;;;;16.10;70.30;;;;;;10343737;28;20778;-59
2022/12/01 02:59:17;;;;;;;;;;;16.00;70.20;;;;;;10344345;28;20020;-60
2022/12/01 03:04:34;;;;;;;;;;;16.10;70.30;;;;;;10343843;28;20656;-60
2022/12/01 03:09:48;;;;;;;;;;;16.10;70.40;;;;;;10342717;28;20030;-60
2022/12/01 03:14:50;;;;;;;;;;;16.10;70.40;;;;;;10344875;28;19934;-60
2022/12/01 03:20:12;;;;;;;;;;;16.10;70.30;;;;;;10343593;28;20048;-60
2022/12/01 03:25:14;;;;;;;;;;;16.00;70.20;;;;;;10343877;28;20377;-60
2022/12/01 03:30:16;;;;;;;;;;;16.00;70.30;;;;;;10343427;28;20029;-60
2022/12/01 03:35:20;;;;;;;;;;;16.00;70.40;;;;;;10343258;28;20018;-59
2022/12/01 03:40:26;;;;;;;;;;;16.00;70.40;;;;;;10342076;28;19988;-60
2022/12/01 03:45:33;;;;;;;;;;;16.00;70.50;;;;;;10342090;28;19989;-59
2022/12/01 03:50:45;;;;;;;;;;;16.00;70.50;;;;;;10343327;28;20024;-60
2022/12/01 03:55:50;;;;;;;;;;;16.00;70.20;;;;;;10342965;28;20030;-60
2022/12/01 04:00:56;;;;;;;;;;;15.90;70.10;;;;;;10342725;28;19973;-61
2022/12/01 04:05:58;;;;;;;;;;;15.90;70.10;;;;;;10342327;28;20025;-60
2022/12/01 04:12:27;;;;;;;;;;;15.90;70.10;;;;;;10342331;28;20032;-60
2022/12/01 04:16:21;;;;;;;;;;;15.90;70.10;;;;;;10342198;28;19941;-60
2022/12/01 04:21:23;;;;;;;;;;;15.90;70.20;;;;;;10342162;28;19934;-60
2022/12/01 04:26:26;;;;;;;;;;;15.90;70.30;;;;;;10341513;28;19985;-60
2022/12/01 04:31:28;;;;;;;;;;;15.90;70.30;;;;;;10340560;28;20409;-61
2022/12/01 04:36:30;;;;;;;;;;;15.90;70.10;;;;;;10341740;28;19934;-61
2022/12/01 04:41:32;;;;;;;;;;;15.90;70.10;;;;;;10341476;28;19934;-60
2022/12/01 04:46:34;;;;;;;;;;;16.00;70.20;;;;;;10347842;28;20044;-59
2022/12/01 04:51:35;;;;;;;;;;;16.00;70.10;;;;;;10346689;28;20381;-61
2022/12/01 04:56:37;;;;;;;;;;;16.00;70.00;;;;;;10348882;28;20017;-60
2022/12/01 05:01:39;;;;;;;;;;;16.00;70.00;;;;;;10348400;28;20013;-61
2022/12/01 05:06:41;;;;;;;;;;;16.00;70.10;;;;;;10347556;28;20004;-59
2022/12/01 05:11:43;;;;;;;;;;;15.90;70.00;;;;;;10348906;28;20415;-60
2022/12/01 05:16:44;;;;;;;;;;;15.90;70.90;;;;;;10347392;28;20029;-60
2022/12/01 05:21:47;;;;;;;;;;;15.90;70.00;;;;;;10348162;28;19934;-60
2022/12/01 05:26:49;;;;;;;;;;;15.90;70.00;;;;;;10347266;28;19934;-60
2022/12/01 05:31:51;;;;;;;;;;;15.90;70.10;;;;;;10347326;28;20075;-61
2022/12/01 05:36:53;;;;;;;;;;;15.90;69.80;;;;;;10346590;28;19934;-60
2022/12/01 05:41:54;;;;;;;;;;;15.80;69.70;;;;;;10347595;28;19933;-59
2022/12/01 05:46:56;;;;;;;;;;;15.80;69.90;;;;;;10346733;28;19934;-60
2022/12/01 05:51:58;;;;;;;;;;;15.90;70.00;;;;;;10345172;28;19976;-60
2022/12/01 05:57:00;;;;;;;;;;;16.00;70.00;;;;;;10345668;28;20030;-60
2022/12/01 06:02:02;;;;;;;;;;;16.20;69.80;;;;;;10344752;28;20503;-60
2022/12/01 06:07:04;;;;;;;;;;;16.40;69.40;;;;;;10344357;28;19988;-60
2022/12/01 06:12:05;;;;;;;;;;;16.60;69.00;;;;;;10345647;28;19956;-60
2022/12/01 06:17:07;;;;;;;;;;;16.60;68.70;;;;;;10345276;28;20470;-61
2022/12/01 06:22:09;;;;;;;;;;;16.70;68.70;;;;;;10344655;28;19934;-60
2022/12/01 06:27:11;;;;;;;;;;;16.70;68.70;;;;;;10344836;28;19944;-60
2022/12/01 06:32:12;;;;;;;;;;;16.70;68.70;;;;;;10344882;28;20013;-60
2022/12/01 06:37:15;;;;;;;;;;;16.60;68.70;;;;;;10343741;28;20072;-60
2022/12/01 06:42:17;;;;;;;;;;;16.60;69.00;;;;;;10344235;28;20017;-60
2022/12/01 06:47:19;;;;;;;;;;;16.50;69.20;;;;;;10341719;28;20272;-60
2022/12/01 06:52:20;;;;;;;;;;;16.50;69.20;;;;;;10344896;28;20024;-60
2022/12/01 06:57:22;;;;;;;;;;;16.40;69.60;;;;;;10343691;28;20507;-60
2022/12/01 07:02:24;;;;;;;;;;;16.40;70.30;;;;;;10341266;28;19981;-61
2022/12/01 07:07:26;;;;;;;;;;;16.40;70.50;;;;;;10343328;28;19934;-60
2022/12/01 07:12:31;;;;;;;;;;;16.40;70.90;;;;;;10343194;28;20475;-61
2022/12/01 07:17:33;;;;;;;;;;;16.40;71.00;;;;;;10343451;28;19956;-60
2022/12/01 07:22:35;;;;;;;;;;;16.40;71.10;;;;;;10342804;28;19934;-62
2022/12/01 07:27:36;;;;;;;;;;;16.40;70.90;;;;;;10343970;28;19948;-60
2022/12/01 07:32:39;;;;;;;;;;;16.30;70.70;;;;;;10341977;28;20017;-61
2022/12/01 07:37:40;;;;;;;;;;;16.30;70.70;;;;;;10342385;28;19940;-60
2022/12/01 07:42:42;;;;;;;;;;;16.20;70.70;;;;;;10343408;28;20025;-60
2022/12/01 07:47:44;;;;;;;;;;;16.20;70.70;;;;;;10342405;28;20033;-60
2022/12/01 07:52:49;;;;;;;;;;;16.20;70.70;;;;;;10342435;28;19941;-60
2022/12/01 07:57:52;;;;;;;;;;;16.10;70.70;;;;;;10341678;28;20037;-61
2022/12/01 08:02:54;;;;;;;;;;;16.10;70.70;;;;;;10341850;28;20274;-60
2022/12/01 08:07:56;;;;;;;;;;;16.00;70.60;;;;;;10325537;28;20445;-60
2022/12/01 08:12:58;;;;;;;;;;;16.00;70.70;;;;;;10342275;28;19934;-61
2022/12/01 08:18:00;;;;;;;;;;;16.00;70.70;;;;;;10342734;28;19941;-60
2022/12/01 08:23:02;;;;;;;;;;;16.00;70.60;;;;;;10349775;28;19941;-61
2022/12/01 08:28:04;;;;;;;;;;;15.90;70.50;;;;;;10349300;28;20025;-61
2022/12/01 08:33:05;;;;;;;;;;;15.90;70.50;;;;;;10349536;28;19934;-60
2022/12/01 08:38:08;;;;;;;;;;;15.90;70.50;;;;;;10349564;28;20009;-61
2022/12/01 08:43:09;;;;;;;;;;;15.80;70.50;;;;;;10348204;28;20446;-60
2022/12/01 08:48:31;;;;;;;;;;;15.80;70.30;;;;;;10349379;28;19934;-61
2022/12/01 08:53:34;;;;;;;;;;;15.80;70.40;;;;;;10347632;28;20877;-61
2022/12/01 08:58:35;;;;;;;;;;;15.80;70.60;;;;;;10347955;28;19981;-60
2022/12/01 09:03:37;;;;;;;;;;;15.90;70.60;;;;;;10347127;28;20376;-61
2022/12/01 09:08:40;;;;;;;;;;;15.90;70.50;;;;;;10348093;28;19934;-60
2022/12/01 09:13:42;;;;;;;;;;;15.90;70.40;;;;;;10346891;28;20013;-61
2022/12/01 09:18:44;;;;;;;;;;;15.90;70.30;;;;;;10348082;28;19965;-61
2022/12/01 09:23:47;;;;;;;;;;;15.90;70.30;;;;;;10347199;28;20032;-60
2022/12/01 09:28:53;;;;;;;;;;;15.90;70.30;;;;;;10346573;28;20017;-61
2022/12/01 09:33:56;;;;;;;;;;;16.00;70.30;;;;;;10347206;28;19942;-61
2022/12/01 09:38:58;;;;;;;;;;;16.00;70.30;;;;;;10344905;28;20444;-61
2022/12/01 09:44:04;;;;;;;;;;;15.90;70.20;;;;;;10345976;28;19934;-61
2022/12/01 09:49:11;;;;;;;;;;;15.90;70.30;;;;;;10345697;28;19934;-61
2022/12/01 09:54:13;;;;;;;;;;;15.90;70.30;;;;;;10345162;28;20029;-61
2022/12/01 09:59:17;;;;;;;;;;;15.90;70.30;;;;;;10347021;28;19934;-61
2022/12/01 10:04:38;;;;;;;;;;;15.90;70.30;;;;;;10344953;28;19934;-61
2022/12/01 10:09:41;;;;;;;;;;;15.90;70.00;;;;;;10346128;28;20755;-61
2022/12/01 10:14:44;;;;;;;;;;;15.90;70.10;;;;;;10346003;28;19934;-61
2022/12/01 10:20:04;;;;;;;;;;;15.80;70.10;;;;;;10346675;28;19980;-61
2022/12/01 10:25:06;;;;;;;;;;;15.80;70.00;;;;;;10344807;28;19940;-61
2022/12/01 10:30:11;;;;;;;;;;;15.80;70.00;;;;;;10345580;28;19941;-61
2022/12/01 10:35:15;;;;;;;;;;;15.80;70.00;;;;;;10345595;28;19934;-61
2022/12/01 10:40:17;;;;;;;;;;;15.80;70.30;;;;;;10343931;28;19972;-61
2022/12/01 10:45:21;;;;;;;;;;;15.80;70.30;;;;;;10345200;28;19974;-61
2022/12/01 10:50:27;;;;;;;;;;;15.80;70.20;;;;;;10344790;28;20415;-61
2022/12/01 10:55:34;;;;;;;;;;;15.80;70.10;;;;;;10344792;28;19940;-59
2022/12/01 11:00:37;;;;;;;;;;;15.80;70.10;;;;;;10344534;28;20029;-60
2022/12/01 11:06:00;;;;;;;;;;;15.90;70.20;;;;;;10343272;28;19941;-59
2022/12/01 11:11:01;;;;;;;;;;;15.90;70.10;;;;;;10344763;28;20011;-61
2022/12/01 11:16:04;;;;;;;;;;;15.90;70.10;;;;;;10344055;28;20373;-61
2022/12/01 11:21:25;;;;;;;;;;;15.80;70.10;;;;;;10344328;28;20308;-61
2022/12/01 11:26:29;;;;;;;;;;;15.80;70.10;;;;;;10344346;28;19937;-61
2022/12/01 11:31:36;;;;;;;;;;;15.80;70.20;;;;;;10344042;28;20012;-61
2022/12/01 11:36:42;;;;;;;;;;;15.80;70.20;;;;;;10344165;28;20410;-61
2022/12/01 11:41:44;;;;;;;;;;;15.80;70.30;;;;;;10343377;28;19969;-61
2022/12/01 11:46:46;;;;;;;;;;;15.80;70.30;;;;;;10342042;28;19941;-61
2022/12/01 11:52:21;;;;;;;;;;;15.80;70.30;;;;;;10342994;28;19945;-60
2022/12/01 11:57:23;;;;;;;;;;;15.80;70.00;;;;;;10343200;28;19971;-61
2022/12/01 12:02:50;;;;;;;;;;;15.80;70.00;;;;;;10342301;28;19941;-60
2022/12/01 12:08:01;;;;;;;;;;;15.70;69.90;;;;;;10343169;28;19957;-61
2022/12/01 12:13:18;;;;;;;;;;;15.70;70.10;;;;;;10343168;28;19966;-61
2022/12/01 12:18:35;;;;;;;;;;;15.70;69.90;;;;;;10342002;28;19984;-61
2022/12/01 12:23:56;;;;;;;;;;;15.70;70.00;;;;;;10342088;28;19934;-61
2022/12/01 12:29:13;;;;;;;;;;;15.70;70.10;;;;;;10342181;28;20002;-60
2022/12/01 12:34:21;;;;;;;;;;;15.70;70.30;;;;;;10342006;28;20028;-61
2022/12/01 12:39:32;;;;;;;;;;;15.80;70.40;;;;;;10342918;28;19934;-61
2022/12/01 12:44:41;;;;;;;;;;;15.80;70.20;;;;;;10341798;28;20040;-61
2022/12/01 12:49:46;;;;;;;;;;;15.80;70.20;;;;;;10341532;28;20029;-61
2022/12/01 12:54:53;;;;;;;;;;;15.80;70.30;;;;;;10341662;28;19974;-61
2022/12/01 13:00:14;;;;;;;;;;;15.80;70.20;;;;;;10341173;28;19978;-60
2022/12/01 13:05:19;;;;;;;;;;;15.80;70.30;;;;;;10343277;28;20427;-60
2022/12/01 13:10:23;;;;;;;;;;;15.80;70.30;;;;;;10347831;28;20038;-61
2022/12/01 13:15:26;;;;;;;;;;;15.80;70.30;;;;;;10348422;28;19996;-61
2022/12/01 13:20:28;;;;;;;;;;;15.80;70.40;;;;;;10347247;28;19937;-60
2022/12/01 13:25:37;;;;;;;;;;;15.80;70.80;;;;;;10346819;28;20029;-60
2022/12/01 13:30:38;;;;;;;;;;;15.80;70.30;;;;;;10347965;28;19973;-60
2022/12/01 13:35:40;;;;;;;;;;;15.70;70.30;;;;;;10347842;28;20028;-60
2022/12/01 13:40:42;;;;;;;;;;;15.70;70.40;;;;;;10347021;28;19934;-60
2022/12/01 13:45:44;;;;;;;;;;;15.70;70.40;;;;;;10346061;28;19940;-60
2022/12/01 13:50:51;;;;;;;;;;;15.70;70.40;;;;;;10347166;28;20032;-60
2022/12/01 13:55:56;;;;;;;;;;;15.70;70.50;;;;;;10346886;28;20032;-61
2022/12/01 14:01:16;;;;;;;;;;;15.70;70.30;;;;;;10346666;28;19962;-61
2022/12/01 14:06:47;;;;;;;;;;;15.60;70.30;;;;;;10345919;28;19941;-61
2022/12/01 14:11:55;;;;;;;;;;;15.60;70.10;;;;;;10346319;28;20065;-61
2022/12/01 14:16:58;;;;;;;;;;;15.60;70.00;;;;;;10344668;28;19977;-61
2022/12/01 14:22:00;;;;;;;;;;;15.60;70.40;;;;;;10346290;28;19934;-61
2022/12/01 14:27:03;;;;;;;;;;;15.60;70.40;;;;;;10345283;28;20041;-61
2022/12/01 14:32:08;;;;;;;;;;;15.70;70.30;;;;;;10345214;28;19962;-61
2022/12/01 14:37:09;;;;;;;;;;;15.70;70.30;;;;;;10345885;28;20013;-61
2022/12/01 14:44:02;;;;;;;;;;;15.70;70.10;;;;;;10344833;28;20444;-61
2022/12/01 14:47:42;;;;;;;;;;;15.70;70.10;;;;;;10345819;28;20040;-61
2022/12/01 14:52:46;;;;;;;;;;;15.70;70.10;;;;;;10345716;28;19938;-61
2022/12/01 14:57:49;;;;;;;;;;;15.70;70.10;;;;;;10344279;28;19934;-61
2022/12/01 15:02:54;;;;;;;;;;;15.70;70.00;;;;;;10343759;28;20021;-61
2022/12/01 15:07:57;;;;;;;;;;;15.70;70.00;;;;;;10343700;28;19940;-61
2022/12/01 15:13:21;;;;;;;;;;;15.70;70.10;;;;;;10345566;28;19934;-59
2022/12/01 15:18:27;;;;;;;;;;;15.60;70.00;;;;;;10343472;28;20017;-59
2022/12/01 15:23:29;;;;;;;;;;;15.60;69.90;;;;;;10343472;28;19989;-60
2022/12/01 15:28:32;;;;;;;;;;;15.60;69.80;;;;;;10342130;28;19985;-59
2022/12/01 15:33:34;;;;;;;;;;;15.60;69.80;;;;;;10342865;28;20842;-59
2022/12/01 15:38:39;;;;;;;;;;;15.60;70.60;;;;;;10342927;28;19934;-59
2022/12/01 15:43:41;;;;;;;;;;;15.50;69.40;;;;;;10341770;28;19940;-59
2022/12/01 15:48:44;;;;;;;;;;;15.50;69.80;;;;;;10342114;28;20005;-59
2022/12/01 15:53:47;;;;;;;;;;;15.60;69.90;;;;;;10342238;28;20013;-60
2022/12/01 15:58:50;;;;;;;;;;;15.60;69.80;;;;;;10340285;28;20542;-60
2022/12/01 16:03:56;;;;;;;;;;;15.70;69.60;;;;;;10342140;28;20009;-60
2022/12/01 16:09:05;;;;;;;;;;;15.70;69.50;;;;;;10340754;28;20431;-61
2022/12/01 16:14:21;;;;;;;;;;;15.70;69.40;;;;;;10342105;28;20033;-61
2022/12/01 16:19:25;;;;;;;;;;;15.80;69.50;;;;;;10342081;28;20006;-61
2022/12/01 16:24:29;;;;;;;;;;;16.00;69.30;;;;;;10340532;28;20437;-61
2022/12/01 16:29:33;;;;;;;;;;;16.30;69.00;;;;;;10340410;28;19938;-61
2022/12/01 16:34:35;;;;;;;;;;;16.50;68.50;;;;;;10340685;28;19934;-61
2022/12/01 16:39:57;;;;;;;;;;;16.70;68.00;;;;;;10343837;28;19940;-61
2022/12/01 16:44:59;;;;;;;;;;;17.00;67.50;;;;;;10346194;28;19941;-61
2022/12/01 16:50:01;;;;;;;;;;;17.10;67.20;;;;;;10329748;28;20703;-61
2022/12/01 16:55:03;;;;;;;;;;;17.20;67.00;;;;;;10347028;28;20365;-61
2022/12/01 17:00:05;;;;;;;;;;;17.30;66.90;;;;;;10347911;28;19962;-62
2022/12/01 17:05:09;;;;;;;;;;;17.30;68.30;;;;;;10345254;28;19934;-61
2022/12/01 17:10:10;;;;;;;;;;;17.30;70.90;;;;;;10346710;28;19941;-60
2022/12/01 17:15:12;;;;;;;;;;;17.50;72.40;;;;;;10346311;28;20059;-61
2022/12/01 17:20:14;;;;;;;;;;;17.70;72.50;;;;;;10343501;28;20368;-60
2022/12/01 17:25:16;;;;;;;;;;;17.90;71.50;;;;;;10344269;28;20026;-60
2022/12/01 17:30:17;;;;;;;;;;;18.10;70.40;;;;;;10343219;28;19968;-60
2022/12/01 17:35:19;;;;;;;;;;;18.20;69.90;;;;;;10346176;28;19934;-60
2022/12/01 17:40:21;;;;;;;;;;;18.20;69.60;;;;;;10345422;28;20021;-60
2022/12/01 17:45:22;;;;;;;;;;;18.10;69.50;;;;;;10343395;28;20025;-60
2022/12/01 17:50:25;;;;;;;;;;;18.00;69.70;;;;;;10345630;28;19934;-61
2022/12/01 17:55:26;;;;;;;;;;;18.00;69.50;;;;;;10345565;28;19938;-60
2022/12/01 18:00:28;;;;;;;;;;;18.00;69.50;;;;;;10345051;28;20393;-59
2022/12/01 18:05:30;;;;;;;;;;;18.00;69.40;;;;;;10344609;28;20270;-60
2022/12/01 18:10:32;;;;;;;;;;;18.00;69.30;;;;;;10345355;28;19997;-60
2022/12/01 18:15:33;;;;;;;;;;;18.10;69.20;;;;;;10344103;28;19934;-62
2022/12/01 18:20:38;;;;;;;;;;;18.10;69.10;;;;;;10343544;28;19935;-60
2022/12/01 18:25:40;;;;;;;;;;;18.10;69.00;;;;;;10342909;28;20029;-61
2022/12/01 18:30:42;;;;;;;;;;;18.10;68.90;;;;;;10344065;28;20371;-61
2022/12/01 18:35:43;;;;;;;;;;;18.10;68.90;;;;;;10343612;28;20036;-60
2022/12/01 18:40:45;;;;;;;;;;;18.10;68.90;;;;;;10343764;28;20555;-60
2022/12/01 18:45:47;;;;;;;;;;;18.20;68.90;;;;;;10342599;28;19938;-60
2022/12/01 18:50:49;;;;;;;;;;;18.20;68.80;;;;;;10342157;28;20288;-60
2022/12/01 18:56:00;;;;;;;;;;;18.20;68.60;;;;;;10342759;28;20401;-60
2022/12/01 19:01:03;;;;;;;;;;;18.20;68.70;;;;;;10340658;28;19934;-61
2022/12/01 19:06:05;;;;;;;;;;;18.20;68.60;;;;;;10342152;28;20412;-60
2022/12/01 19:11:06;;;;;;;;;;;18.10;68.10;;;;;;10342416;28;19934;-61
2022/12/01 19:16:09;;;;;;;;;;;18.20;68.20;;;;;;10341328;28;20862;-60
2022/12/01 19:21:12;;;;;;;;;;;18.20;68.10;;;;;;10343326;28;20416;-60
2022/12/01 19:26:15;;;;;;;;;;;18.20;68.00;;;;;;10342857;28;19940;-60
2022/12/01 19:31:18;;;;;;;;;;;18.20;67.80;;;;;;10342340;28;19961;-60
2022/12/01 19:36:21;;;;;;;;;;;18.20;67.70;;;;;;10341620;28;19938;-60
2022/12/01 19:41:24;;;;;;;;;;;18.20;67.60;;;;;;10341143;28;20022;-60
2022/12/01 19:46:27;;;;;;;;;;;18.20;67.50;;;;;;10339517;28;19985;-60
2022/12/01 19:51:31;;;;;;;;;;;18.20;67.60;;;;;;10339966;28;19940;-60
2022/12/01 19:56:33;;;;;;;;;;;18.20;67.30;;;;;;10341298;28;20025;-60
2022/12/01 20:01:34;;;;;;;;;;;18.30;67.40;;;;;;10340395;28;20029;-60
2022/12/01 20:06:37;;;;;;;;;;;18.20;67.10;;;;;;10339211;28;19934;-61
2022/12/01 20:11:38;;;;;;;;;;;18.20;67.10;;;;;;10341155;28;20428;-60
2022/12/01 20:16:40;;;;;;;;;;;18.20;67.00;;;;;;10344685;28;19985;-60
2022/12/01 20:21:43;;;;;;;;;;;18.20;66.90;;;;;;10346354;28;19981;-60
2022/12/01 20:26:46;;;;;;;;;;;18.20;66.80;;;;;;10348009;28;20080;-60
2022/12/01 20:31:48;;;;;;;;;;;18.30;66.80;;;;;;10347358;28;20842;-60
2022/12/01 20:36:50;;;;;;;;;;;18.30;66.80;;;;;;10347848;28;19989;-60
2022/12/01 20:41:52;;;;;;;;;;;18.30;66.60;;;;;;10347454;28;19970;-60
2022/12/01 20:46:54;;;;;;;;;;;18.20;66.50;;;;;;10347325;28;20431;-60
2022/12/01 20:51:56;;;;;;;;;;;18.20;66.50;;;;;;10347519;28;20032;-61
2022/12/01 20:56:58;;;;;;;;;;;18.10;66.60;;;;;;10346434;28;19933;-60
2022/12/01 21:02:00;;;;;;;;;;;18.00;66.70;;;;;;10347578;28;19941;-59
2022/12/01 21:07:01;;;;;;;;;;;17.90;66.90;;;;;;10346396;28;20041;-61
2022/12/01 21:17:29;;;;;;;;;;;17.70;67.40;;;;;;10347668;28;20332;-60
2022/12/01 21:22:34;;;;;;;;;;;17.60;67.70;;;;;;10346626;28;27257;-60
2022/12/01 21:27:35;;;;;;;;;;;17.50;67.80;;;;;;10345124;28;19934;-59
2022/12/01 21:32:40;;;;;;;;;;;17.40;67.90;;;;;;10346296;28;20308;-60
2022/12/01 21:37:45;;;;;;;;;;;17.30;68.20;;;;;;10346171;28;19941;-61
2022/12/01 21:42:47;;;;;;;;;;;17.30;68.20;;;;;;10346711;28;19941;-60
2022/12/01 21:47:49;;;;;;;;;;;17.20;68.00;;;;;;10345852;28;19981;-60
2022/12/01 21:52:50;;;;;;;;;;;17.10;67.90;;;;;;10346628;28;20018;-60
2022/12/01 21:57:52;;;;;;;;;;;17.00;68.00;;;;;;10346063;28;20029;-60
2022/12/01 22:03:20;;;;;;;;;;;17.00;68.20;;;;;;10345594;28;19973;-61
2022/12/01 22:08:24;;;;;;;;;;;17.00;68.40;;;;;;10345300;28;20024;-60
2022/12/01 22:13:37;;;;;;;;;;;16.90;68.40;;;;;;10344661;28;20437;-60
2022/12/01 22:18:39;;;;;;;;;;;16.90;68.40;;;;;;10343655;28;20070;-60
2022/12/01 22:23:41;;;;;;;;;;;16.80;68.30;;;;;;10344292;28;19996;-60
2022/12/01 22:28:42;;;;;;;;;;;16.80;68.30;;;;;;10344727;28;19981;-59
2022/12/01 22:33:44;;;;;;;;;;;16.80;68.40;;;;;;10344731;28;19941;-60
2022/12/01 22:38:46;;;;;;;;;;;16.70;68.40;;;;;;10344238;28;20032;-60
2022/12/01 22:43:53;;;;;;;;;;;16.70;68.40;;;;;;10344252;28;20025;-60
2022/12/01 22:48:59;;;;;;;;;;;16.60;68.50;;;;;;10344155;28;20509;-60
2022/12/01 22:54:10;;;;;;;;;;;16.60;68.50;;;;;;10343015;28;20025;-60
2022/12/01 22:59:22;;;;;;;;;;;16.60;68.70;;;;;;10344123;28;20460;-60
2022/12/01 23:04:25;;;;;;;;;;;16.50;68.50;;;;;;10343518;28;19934;-60
2022/12/01 23:09:45;;;;;;;;;;;16.50;68.50;;;;;;10343267;28;20415;-59
2022/12/01 23:14:48;;;;;;;;;;;16.50;68.50;;;;;;10342248;28;19962;-59
2022/12/01 23:19:51;;;;;;;;;;;16.40;69.50;;;;;;10325542;28;19934;-60
2022/12/01 23:24:53;;;;;;;;;;;16.40;68.50;;;;;;10343427;28;19941;-61
2022/12/01 23:29:55;;;;;;;;;;;16.40;68.40;;;;;;10343186;28;19964;-59
2022/12/01 23:34:56;;;;;;;;;;;16.30;68.50;;;;;;10342690;28;19978;-60
2022/12/01 23:40:04;;;;;;;;;;;16.30;68.40;;;;;;10343078;28;19961;-60
2022/12/01 23:45:32;;;;;;;;;;;16.30;68.40;;;;;;10342143;28;20065;-60
2022/12/01 23:50:33;;;;;;;;;;;16.30;68.50;;;;;;10337081;28;20016;-60
2022/12/01 23:55:35;;;;;;;;;;;16.30;68.50;;;;;;10342289;28;19934;-60
